createdAt,value
2022-08-18T00:02:17.823Z,11.80
2022-08-18T00:04:49.599Z,12.03
2022-08-18T00:07:20.218Z,11.73
2022-08-18T00:09:48.799Z,11.50
2022-08-18T00:12:19.300Z,12.47
2022-08-18T00:14:48.414Z,12.53
2022-08-18T00:17:18.635Z,11.63
2022-08-18T00:19:48.373Z,12.23
2022-08-18T00:22:19.257Z,12.20
2022-08-18T00:24:49.491Z,11.87
2022-08-18T00:27:22.021Z,11.23
2022-08-18T00:29:52.483Z,12.10
2022-08-18T00:32:24.094Z,12.63
2022-08-18T00:34:52.221Z,12.40
2022-08-18T00:37:20.043Z,11.70
2022-08-18T00:39:48.300Z,13.90
2022-08-18T00:42:27.698Z,12.67
2022-08-18T00:45:01.306Z,13.27
2022-08-18T00:47:41.842Z,12.40
2022-08-18T00:50:15.965Z,12.90
2022-08-18T00:52:48.822Z,12.97
2022-08-18T00:55:19.387Z,12.80
2022-08-18T00:57:49.682Z,11.50
2022-08-18T01:00:18.063Z,12.73
2022-08-18T01:02:54.406Z,12.50
2022-08-18T01:05:26.004Z,12.33
2022-08-18T01:07:54.352Z,11.90
2022-08-18T01:10:24.391Z,12.13
2022-08-18T01:12:54.828Z,11.97
2022-08-18T01:15:28.245Z,12.17
2022-08-18T01:18:19.154Z,11.90
2022-08-18T01:21:18.561Z,10.97
2022-08-18T01:23:49.541Z,11.67
2022-08-18T01:26:18.486Z,12.97
2022-08-18T01:28:49.469Z,13.20
2022-08-18T01:31:34.125Z,13.37
2022-08-18T01:34:02.203Z,11.37
2022-08-18T01:36:30.369Z,11.13
2022-08-18T01:38:59.574Z,10.90
2022-08-18T01:41:30.875Z,11.13
2022-08-18T01:44:00.871Z,10.27
2022-08-18T01:46:30.414Z,10.47
2022-08-18T01:49:01.331Z,11.47
2022-08-18T01:51:38.818Z,11.30
2022-08-18T01:54:12.294Z,11.50
2022-08-18T01:56:40.758Z,11.57
2022-08-18T01:59:14.715Z,11.70
2022-08-18T02:01:48.230Z,12.13
2022-08-18T02:07:09.821Z,12.37
2022-08-18T02:09:40.998Z,11.67
2022-08-18T02:12:09.249Z,11.20
2022-08-18T02:14:37.712Z,11.23
2022-08-18T02:17:08.785Z,11.50
2022-08-18T02:19:38.388Z,11.57
2022-08-18T02:22:08.384Z,11.83
2022-08-18T02:24:36.322Z,10.70
2022-08-18T02:27:06.312Z,10.97
2022-08-18T02:29:34.505Z,10.87
2022-08-18T02:32:02.394Z,11.20
2022-08-18T02:34:30.209Z,11.00
2022-08-18T02:36:59.885Z,11.30
2022-08-18T02:39:27.763Z,11.30
2022-08-18T02:41:55.750Z,11.20
2022-08-18T02:44:24.933Z,11.83
2022-08-18T02:46:54.993Z,10.97
2022-08-18T02:49:23.112Z,11.13
2022-08-18T02:51:51.520Z,11.00
2022-08-18T02:54:20.465Z,12.07
2022-08-18T02:56:48.301Z,10.50
2022-08-18T02:59:19.262Z,11.17
2022-08-18T03:01:50.922Z,10.90
2022-08-18T03:04:25.281Z,11.43
2022-08-18T03:06:56.630Z,11.13
2022-08-18T03:09:24.917Z,11.63
2022-08-18T03:11:53.560Z,11.57
2022-08-18T03:14:21.796Z,12.00
2022-08-18T03:16:54.014Z,11.67
2022-08-18T03:19:23.377Z,12.17
2022-08-18T03:21:51.484Z,12.53
2022-08-18T03:24:22.847Z,12.33
2022-08-18T03:26:53.469Z,12.33
2022-08-18T03:29:22.115Z,13.03
2022-08-18T03:31:51.342Z,12.90
2022-08-18T03:34:20.809Z,13.40
2022-08-18T03:36:49.970Z,13.40
2022-08-18T03:39:19.644Z,13.57
2022-08-18T03:41:58.353Z,13.57
2022-08-18T03:44:30.406Z,15.17
2022-08-18T03:47:01.097Z,21.57
2022-08-18T03:49:28.928Z,15.20
2022-08-18T03:51:57.109Z,15.07
2022-08-18T03:54:26.052Z,15.57
2022-08-18T03:56:54.448Z,15.53
2022-08-18T03:59:23.669Z,17.37
2022-08-18T04:01:53.781Z,17.73
2022-08-18T04:04:25.453Z,18.17
2022-08-18T04:06:57.090Z,19.03
2022-08-18T04:09:27.294Z,19.30
2022-08-18T04:11:55.281Z,21.20
2022-08-18T04:14:26.903Z,18.73
2022-08-18T04:16:54.726Z,18.17
2022-08-18T04:19:26.926Z,19.47
2022-08-18T04:21:57.038Z,20.77
2022-08-18T04:24:26.103Z,19.80
2022-08-18T04:26:54.778Z,20.13
2022-08-18T04:29:23.023Z,20.00
2022-08-18T04:31:52.321Z,18.03
2022-08-18T04:34:22.788Z,19.23
2022-08-18T04:36:53.990Z,19.23
2022-08-18T04:39:22.836Z,18.67
2022-08-18T04:41:51.475Z,19.00
2022-08-18T04:44:20.053Z,18.40
2022-08-18T04:46:50.150Z,18.53
2022-08-18T04:49:22.395Z,18.83
2022-08-18T04:52:37.752Z,18.40
2022-08-18T04:54:53.965Z,17.60
2022-08-18T04:57:23.010Z,17.67
2022-08-18T04:59:53.385Z,17.87
2022-08-18T05:02:22.290Z,17.30
2022-08-18T05:04:50.093Z,18.70
2022-08-18T05:07:22.568Z,17.60
2022-08-18T05:09:51.949Z,17.57
2022-08-18T05:12:20.504Z,17.33
2022-08-18T05:14:54.057Z,18.10
2022-08-18T05:17:22.319Z,17.40
2022-08-18T05:19:51.779Z,17.83
2022-08-18T05:22:27.872Z,17.43
2022-08-18T05:24:58.170Z,18.30
2022-08-18T05:27:25.973Z,18.43
2022-08-18T05:29:53.746Z,18.90
2022-08-18T05:32:42.481Z,17.90
2022-08-18T05:35:14.190Z,19.03
2022-08-18T05:37:54.930Z,19.53
2022-08-18T05:40:25.464Z,19.10
2022-08-18T05:42:57.324Z,18.37
2022-08-18T05:45:25.594Z,18.60
2022-08-18T05:47:59.838Z,18.20
2022-08-18T05:50:28.734Z,19.47
2022-08-18T05:53:01.987Z,18.77
2022-08-18T05:55:52.579Z,17.73
2022-08-18T05:58:24.745Z,17.40
2022-08-18T06:01:04.417Z,17.70
2022-08-18T06:03:45.179Z,17.27
2022-08-18T06:06:19.487Z,16.93
2022-08-18T06:08:54.702Z,16.77
2022-08-18T06:11:23.077Z,15.60
2022-08-18T06:13:52.384Z,15.73
2022-08-18T06:16:41.704Z,16.10
2022-08-18T06:19:27.116Z,15.90
2022-08-18T06:22:01.076Z,14.70
2022-08-18T06:24:37.452Z,15.33
2022-08-18T06:27:15.608Z,18.07
2022-08-18T06:29:58.094Z,17.67
2022-08-18T06:32:36.700Z,19.53
2022-08-18T06:35:18.079Z,18.07
2022-08-18T06:38:10.458Z,16.20
2022-08-18T06:40:39.945Z,14.07
2022-08-18T06:43:14.633Z,13.97
2022-08-18T06:45:46.044Z,12.87
2022-08-18T06:48:22.583Z,12.40
2022-08-18T06:50:53.280Z,12.17
2022-08-18T06:53:27.144Z,11.67
2022-08-18T06:55:57.412Z,11.50
2022-08-18T06:58:30.505Z,11.83
2022-08-18T07:01:02.644Z,11.33
2022-08-18T07:03:47.254Z,11.33
2022-08-18T07:06:31.538Z,10.87
2022-08-18T07:09:24.157Z,11.47
2022-08-18T07:12:07.589Z,10.50
2022-08-18T07:14:45.267Z,10.70
2022-08-18T07:17:22.142Z,10.20
2022-08-18T07:19:58.110Z,11.00
2022-08-18T07:22:29.899Z,10.47
2022-08-18T07:25:08.176Z,11.30
2022-08-18T07:27:48.971Z,10.57
2022-08-18T07:30:29.878Z,9.93
2022-08-18T07:33:03.869Z,10.60
2022-08-18T07:35:39.179Z,9.93
2022-08-18T07:38:40.850Z,9.70
2022-08-18T07:41:09.550Z,9.53
2022-08-18T07:43:45.926Z,9.63
2022-08-18T07:46:19.816Z,9.27
2022-08-18T07:48:47.893Z,8.77
2022-08-18T07:51:24.993Z,9.27
2022-08-18T07:54:20.039Z,8.27
2022-08-18T07:57:02.666Z,8.43
2022-08-18T07:59:40.398Z,8.70
2022-08-18T08:02:25.025Z,7.90
2022-08-18T08:05:02.832Z,8.17
2022-08-18T08:07:32.955Z,8.47
2022-08-18T08:10:29.632Z,8.50
2022-08-18T08:13:09.579Z,8.50
2022-08-18T08:15:49.610Z,8.60
2022-08-18T08:18:23.057Z,8.23
2022-08-18T08:20:56.289Z,7.60
2022-08-18T08:23:30.579Z,8.40
2022-08-18T08:26:20.490Z,8.13
2022-08-18T08:28:56.279Z,7.70
2022-08-18T08:31:42.305Z,7.20
2022-08-18T08:34:15.190Z,8.23
2022-08-18T08:36:45.970Z,7.70
2022-08-18T08:39:19.489Z,8.00
2022-08-18T08:41:51.009Z,7.87
2022-08-18T08:44:22.544Z,7.33
2022-08-18T08:46:57.586Z,6.93
2022-08-18T08:49:36.892Z,7.13
2022-08-18T08:52:08.640Z,7.37
2022-08-18T08:54:45.918Z,6.57
2022-08-18T08:57:15.983Z,6.93
2022-08-18T08:59:47.073Z,7.70
2022-08-18T09:02:47.919Z,7.50
2022-08-18T09:05:21.338Z,6.83
2022-08-18T09:08:13.313Z,7.23
2022-08-18T09:11:04.999Z,6.90
2022-08-18T09:14:05.497Z,6.87
2022-08-18T09:16:45.694Z,7.30
2022-08-18T09:19:41.453Z,6.60
2022-08-18T09:22:20.410Z,7.43
2022-08-18T09:24:51.336Z,7.30
2022-08-18T09:27:53.764Z,7.70
2022-08-18T09:30:47.533Z,7.20
2022-08-18T09:33:50.757Z,7.30
2022-08-18T09:36:37.334Z,7.90
2022-08-18T09:39:38.766Z,7.47
2022-08-18T09:42:14.361Z,7.20
2022-08-18T09:45:31.055Z,7.70
2022-08-18T09:48:08.723Z,7.80
2022-08-18T09:51:15.665Z,7.40
2022-08-18T10:00:29.474Z,8.00
2022-08-18T10:03:25.454Z,7.97
2022-08-18T10:06:04.759Z,7.60
2022-08-18T10:12:27.360Z,7.03
2022-08-18T10:15:34.101Z,7.27
2022-08-18T10:18:40.504Z,7.77
2022-08-18T10:21:14.882Z,7.70
2022-08-18T10:24:03.179Z,7.57
2022-08-18T10:27:11.998Z,7.40
2022-08-18T10:29:54.111Z,7.37
2022-08-18T10:32:52.138Z,7.87
2022-08-18T10:35:58.302Z,7.07
2022-08-18T10:38:49.328Z,7.55
2022-08-18T10:41:26.566Z,8.18
2022-08-18T10:44:01.182Z,7.18
2022-08-18T10:46:38.144Z,7.15
2022-08-18T10:49:25.958Z,7.53
2022-08-18T10:52:33.875Z,7.65
2022-08-18T10:55:17.673Z,7.35
2022-08-18T10:58:14.506Z,6.93
2022-08-18T11:01:01.922Z,7.40
2022-08-18T11:03:51.004Z,7.47
2022-08-18T11:06:24.794Z,7.05
2022-08-18T11:09:00.176Z,7.40
2022-08-18T11:11:52.472Z,7.57
2022-08-18T11:14:41.945Z,7.63
2022-08-18T11:17:21.120Z,8.18
2022-08-18T11:19:53.781Z,7.93
2022-08-18T11:22:31.361Z,7.65
2022-08-18T11:25:01.359Z,8.27
2022-08-18T11:27:35.329Z,8.65
2022-08-18T11:30:07.170Z,7.90
2022-08-18T11:32:51.370Z,8.48
2022-08-18T11:35:23.790Z,8.30
2022-08-18T11:37:56.975Z,8.70
2022-08-18T11:41:08.783Z,8.63
2022-08-18T11:43:29.775Z,8.85
2022-08-18T11:46:02.144Z,9.48
2022-08-18T11:48:46.478Z,9.10
2022-08-18T11:51:25.279Z,8.33
2022-08-18T11:53:58.983Z,9.32
2022-08-18T11:56:30.973Z,8.88
2022-08-18T11:59:01.740Z,8.90
2022-08-18T12:01:42.425Z,8.57
2022-08-18T12:04:17.025Z,8.93
2022-08-18T12:07:01.092Z,8.50
2022-08-18T12:10:16.723Z,8.70
2022-08-18T12:12:28.183Z,9.13
2022-08-18T12:15:07.984Z,10.88
2022-08-18T12:17:44.567Z,9.50
2022-08-18T12:20:21.207Z,8.63
2022-08-18T12:22:51.935Z,9.38
2022-08-18T12:25:24.653Z,9.90
2022-08-18T12:27:53.569Z,9.50
2022-08-18T12:30:21.402Z,9.00
2022-08-18T12:32:55.719Z,9.38
2022-08-18T12:35:24.396Z,9.93
2022-08-18T12:38:00.458Z,10.07
2022-08-18T12:40:33.076Z,10.93
2022-08-18T12:43:01.185Z,10.30
2022-08-18T12:45:31.126Z,9.87
2022-08-18T12:50:58.233Z,10.70
2022-08-18T12:53:57.864Z,10.23
2022-08-18T12:56:22.367Z,10.70
2022-08-18T12:58:50.591Z,10.80
2022-08-18T13:01:18.999Z,10.60
2022-08-18T13:03:52.771Z,11.20
2022-08-18T13:06:38.789Z,10.90
2022-08-18T13:09:16.510Z,11.57
2022-08-18T13:12:00.175Z,13.80
2022-08-18T13:14:28.685Z,10.80
2022-08-18T13:16:56.532Z,10.93
2022-08-18T13:19:24.690Z,11.07
2022-08-18T13:22:00.011Z,11.50
2022-08-18T13:24:29.187Z,10.70
2022-08-18T13:26:57.155Z,10.87
2022-08-18T13:29:24.988Z,11.17
2022-08-18T13:31:57.789Z,11.40
2022-08-18T13:34:27.629Z,10.53
2022-08-18T13:36:58.405Z,11.33
2022-08-18T13:39:33.664Z,10.37
2022-08-18T13:42:26.697Z,10.23
2022-08-18T13:44:54.870Z,10.60
2022-08-18T13:47:23.493Z,10.27
2022-08-18T13:49:58.024Z,10.05
2022-08-18T13:52:36.230Z,10.50
2022-08-18T13:55:12.015Z,10.37
2022-08-18T13:57:49.903Z,10.67
2022-08-18T14:00:29.612Z,11.75
2022-08-18T14:03:03.216Z,9.97
2022-08-18T14:05:51.058Z,13.33
2022-08-18T14:08:19.892Z,11.45
2022-08-18T14:10:50.185Z,10.57
2022-08-18T14:13:24.621Z,10.10
2022-08-18T14:15:54.955Z,10.02
2022-08-18T14:18:28.959Z,10.75
2022-08-18T14:21:16.640Z,10.88
2022-08-18T14:24:01.896Z,11.75
2022-08-18T14:26:50.421Z,11.38
2022-08-18T14:29:46.235Z,10.63
2022-08-18T14:32:08.569Z,11.07
2022-08-18T14:34:39.593Z,17.33
2022-08-18T14:37:18.890Z,10.83
2022-08-18T14:39:47.995Z,10.80
2022-08-18T14:42:21.146Z,10.03
2022-08-18T14:45:17.992Z,11.30
2022-08-18T14:47:59.231Z,10.73
2022-08-18T14:50:27.702Z,10.87
2022-08-18T14:52:55.648Z,10.77
2022-08-18T14:55:23.859Z,11.20
2022-08-18T14:57:52.369Z,11.00
2022-08-18T15:00:24.179Z,10.40
2022-08-18T15:02:52.073Z,11.67
2022-08-18T15:05:24.187Z,9.90
2022-08-18T15:07:52.532Z,10.50
2022-08-18T15:10:23.649Z,10.97
2022-08-18T15:12:57.726Z,10.80
2022-08-18T15:15:27.590Z,10.13
2022-08-18T15:18:10.513Z,10.90
2022-08-18T15:21:00.044Z,10.93
2022-08-18T15:23:45.357Z,11.23
2022-08-18T15:26:18.893Z,11.13
2022-08-18T15:28:50.760Z,10.70
2022-08-18T15:34:07.798Z,11.57
2022-08-18T15:36:40.586Z,10.77
2022-08-18T15:39:08.986Z,11.27
2022-08-18T15:41:43.961Z,10.60
2022-08-18T15:44:15.119Z,11.07
2022-08-18T15:46:47.251Z,11.47
2022-08-18T15:49:21.841Z,13.27
2022-08-18T15:51:52.656Z,16.47
2022-08-18T15:54:20.893Z,11.17
2022-08-18T15:56:55.934Z,10.17
2022-08-18T15:59:27.002Z,10.93
2022-08-18T16:02:11.946Z,11.07
2022-08-18T16:04:41.297Z,10.97
2022-08-18T16:07:10.977Z,10.17
2022-08-18T16:09:38.892Z,10.57
2022-08-18T16:12:09.403Z,10.47
2022-08-18T16:14:39.681Z,10.00
2022-08-18T16:17:18.346Z,10.57
2022-08-18T16:19:51.860Z,10.87
2022-08-18T16:22:19.583Z,11.10
2022-08-18T16:24:54.833Z,10.33
2022-08-18T16:27:22.966Z,10.87
2022-08-18T16:29:50.764Z,10.27
2022-08-18T16:32:19.888Z,10.57
2022-08-18T16:34:47.643Z,13.97
2022-08-18T16:39:48.188Z,11.00
2022-08-18T16:42:17.153Z,10.63
2022-08-18T16:44:45.371Z,11.07
2022-08-18T16:47:14.274Z,12.37
2022-08-18T16:49:45.350Z,11.33
2022-08-18T16:52:13.719Z,11.97
2022-08-18T16:54:41.522Z,12.07
2022-08-18T16:57:09.474Z,12.90
2022-08-18T16:59:55.644Z,13.93
2022-08-18T17:02:40.834Z,11.57
2022-08-18T17:05:11.916Z,13.47
2022-08-18T17:07:39.919Z,15.37
2022-08-18T17:10:09.000Z,15.43
2022-08-18T17:12:37.297Z,16.20
2022-08-18T17:15:06.215Z,17.03
2022-08-18T17:17:35.452Z,16.77
2022-08-18T17:20:03.436Z,19.27
2022-08-18T17:22:40.556Z,26.30
2022-08-18T17:25:12.414Z,18.97
2022-08-18T17:27:42.237Z,17.00
2022-08-18T17:30:16.989Z,16.80
2022-08-18T17:32:49.155Z,17.00
2022-08-18T17:35:28.802Z,17.70
2022-08-18T17:38:02.377Z,16.23
2022-08-18T17:40:34.867Z,17.10
2022-08-18T17:43:03.172Z,18.00
2022-08-18T17:45:34.767Z,16.77
2022-08-18T17:48:11.855Z,17.53
2022-08-18T17:51:14.845Z,17.33
2022-08-18T17:53:45.320Z,16.90
2022-08-18T17:56:19.009Z,20.23
2022-08-18T17:58:52.364Z,20.53
2022-08-18T18:01:20.214Z,27.43
2022-08-18T18:03:48.159Z,24.10
2022-08-18T18:06:29.747Z,25.10
2022-08-18T18:09:03.202Z,19.93
2022-08-18T18:11:32.780Z,18.33
2022-08-18T18:14:02.675Z,19.30
2022-08-18T18:16:35.926Z,17.23
2022-08-18T18:19:06.250Z,18.70
2022-08-18T18:21:57.592Z,20.03
2022-08-18T18:24:33.185Z,21.17
2022-08-18T18:27:02.001Z,21.50
2022-08-18T18:29:37.797Z,37.20
2022-08-18T18:32:23.302Z,25.23
2022-08-18T18:35:09.576Z,23.80
2022-08-18T18:37:47.575Z,22.83
2022-08-18T18:40:30.254Z,22.93
2022-08-18T18:43:17.802Z,23.33
2022-08-18T18:46:04.939Z,22.93
2022-08-18T18:48:51.379Z,22.67
2022-08-18T18:51:33.768Z,23.03
2022-08-18T18:54:16.985Z,22.27
2022-08-18T18:56:50.698Z,21.67
2022-08-18T18:59:30.892Z,21.87
2022-08-18T19:02:33.887Z,23.87
2022-08-18T19:05:13.332Z,22.63
2022-08-18T19:07:54.324Z,22.80
2022-08-18T19:10:30.343Z,23.03
2022-08-18T19:13:03.696Z,22.63
2022-08-18T19:15:38.111Z,23.10
2022-08-18T19:18:27.171Z,22.63
2022-08-18T19:22:01.879Z,23.17
2022-08-18T19:23:52.349Z,24.73
2022-08-18T19:26:27.082Z,23.10
2022-08-18T19:29:12.303Z,23.23
2022-08-18T19:31:48.237Z,22.70
2022-08-18T19:34:19.461Z,23.17
2022-08-18T19:36:57.017Z,23.83
2022-08-18T19:39:32.347Z,21.07
2022-08-18T19:42:05.507Z,22.87
2022-08-18T19:44:47.333Z,23.83
2022-08-18T19:47:36.625Z,23.20
2022-08-18T19:50:14.031Z,22.63
2022-08-18T19:52:58.446Z,24.07
2022-08-18T19:55:39.146Z,22.13
2022-08-18T19:58:29.823Z,22.27
2022-08-18T20:01:03.786Z,25.53
2022-08-18T20:03:59.715Z,22.13
2022-08-18T20:06:53.786Z,21.97
2022-08-18T20:09:51.089Z,21.67
2022-08-18T20:12:37.656Z,21.17
2022-08-18T20:15:15.935Z,23.67
2022-08-18T20:18:20.270Z,22.70
2022-08-18T20:21:26.118Z,23.03
2022-08-18T20:24:08.532Z,23.80
2022-08-18T20:26:50.083Z,26.40
2022-08-18T20:29:21.471Z,29.50
2022-08-18T20:32:02.868Z,24.20
2022-08-18T20:34:34.011Z,22.27
2022-08-18T20:37:08.135Z,24.83
2022-08-18T20:39:46.931Z,25.00
2022-08-18T20:42:55.824Z,24.90
2022-08-18T20:45:45.691Z,24.07
2022-08-18T20:48:28.847Z,25.60
2022-08-18T20:51:11.303Z,25.77
2022-08-18T20:54:13.104Z,25.17
2022-08-18T20:56:46.431Z,25.90
2022-08-18T20:59:20.156Z,25.87
2022-08-18T21:01:56.402Z,26.87
2022-08-18T21:04:51.028Z,27.87
2022-08-18T21:07:36.374Z,27.67
2022-08-18T21:10:13.597Z,25.93
2022-08-18T21:12:51.727Z,28.77
2022-08-18T21:15:24.073Z,28.03
2022-08-18T21:17:58.855Z,26.97
2022-08-18T21:20:28.533Z,27.40
2022-08-18T21:23:05.622Z,26.97
2022-08-18T21:25:34.330Z,28.17
2022-08-18T21:28:04.473Z,29.83
2022-08-18T21:30:32.940Z,29.93
2022-08-18T21:33:02.011Z,28.57
2022-08-18T21:35:33.610Z,27.10
2022-08-18T21:38:05.585Z,28.83
2022-08-18T21:40:39.720Z,27.23
2022-08-18T21:43:08.607Z,28.17
2022-08-18T21:45:47.412Z,28.73
2022-08-18T21:48:16.160Z,26.70
2022-08-18T21:50:51.508Z,28.87
2022-08-18T21:53:25.773Z,30.90
2022-08-18T21:55:57.479Z,28.80
2022-08-18T21:58:33.923Z,31.13
2022-08-18T22:01:24.322Z,30.03
2022-08-18T22:03:55.696Z,30.90
2022-08-18T22:06:30.283Z,28.60
2022-08-18T22:09:28.245Z,30.10
2022-08-18T22:12:36.558Z,27.53
2022-08-18T22:15:10.366Z,26.80
2022-08-18T22:17:45.019Z,28.70
2022-08-18T22:20:42.867Z,29.17
2022-08-18T22:23:50.924Z,29.73
2022-08-18T22:26:25.425Z,31.93
2022-08-18T22:28:59.260Z,33.87
2022-08-18T22:31:30.592Z,33.00
2022-08-18T22:34:02.464Z,37.57
2022-08-18T22:36:33.602Z,37.83
2022-08-18T22:39:01.636Z,37.40
2022-08-18T22:41:32.304Z,36.77
2022-08-18T22:44:00.729Z,38.80
2022-08-18T22:46:29.052Z,35.50
2022-08-18T22:48:56.816Z,33.33
2022-08-18T22:51:27.676Z,31.90
2022-08-18T22:53:56.783Z,32.27
2022-08-18T22:56:34.243Z,34.07
2022-08-18T22:59:13.783Z,36.00
2022-08-18T23:01:46.134Z,35.40
2022-08-18T23:04:15.816Z,34.90
2022-08-18T23:06:48.629Z,39.03
2022-08-18T23:09:16.449Z,38.43
2022-08-18T23:11:44.255Z,39.57
2022-08-18T23:14:14.140Z,39.67
2022-08-18T23:16:45.231Z,36.47
2022-08-18T23:19:14.724Z,37.10
2022-08-18T23:21:43.420Z,37.03
2022-08-18T23:24:14.641Z,36.27
2022-08-18T23:26:43.294Z,35.57
2022-08-18T23:29:14.293Z,34.93
2022-08-18T23:31:44.843Z,34.20
2022-08-18T23:34:15.371Z,32.83
2022-08-18T23:36:45.781Z,34.00
2022-08-18T23:39:14.943Z,34.00
2022-08-18T23:41:43.027Z,31.47
2022-08-18T23:44:13.390Z,29.80
2022-08-18T23:46:44.606Z,29.40
2022-08-18T23:49:14.694Z,29.70
2022-08-18T23:51:44.601Z,28.67
2022-08-18T23:54:18.683Z,29.87
2022-08-18T23:56:47.285Z,28.77
2022-08-18T23:59:17.166Z,28.03
